Time;durP1;ratioP1;P1;durP2;ratioP2;P2;SDS_P1;SDS_P2;PMS_P1;PMS_P2;Temp;Humidity;BMP_temperature;BMP_pressure;BME280_temperature;BME280_humidity;BME280_pressure;Samples;Min_cycle;Max_cycle;Signal;HPM_P1;HPM_P2
2021/12/06 00:01:17;;;;;;;9.32;3.65;;;;;;;7.96;84.88;101095.00;7387169;19;20006;-67
2021/12/06 00:03:48;;;;;;;11.27;2.30;;;;;;;7.97;84.80;101098.44;7389142;19;20018;-72
2021/12/06 00:06:18;;;;;;;7.40;2.00;;;;;;;7.97;85.07;101099.28;7388012;19;20007;-70
2021/12/06 00:08:45;;;;;;;8.65;2.30;;;;;;;7.97;85.32;101087.97;7389219;19;20011;-69
2021/12/06 00:11:14;;;;;;;7.15;2.22;;;;;;;7.94;84.78;101086.44;7393257;19;20043;-71
2021/12/06 00:13:46;;;;;;;9.48;1.65;;;;;;;7.93;84.57;101076.91;7389062;19;20672;-69
2021/12/06 00:16:21;;;;;;;7.05;2.13;;;;;;;7.92;84.62;101070.03;7387063;19;20006;-69
2021/12/06 00:18:50;;;;;;;7.50;1.55;;;;;;;7.89;84.83;101061.56;7391728;19;20011;-70
2021/12/06 00:21:20;;;;;;;10.88;1.88;;;;;;;7.88;84.56;101070.38;7391525;19;20014;-70
2021/12/06 00:23:47;;;;;;;6.07;2.25;;;;;;;7.88;84.31;101073.84;7388049;19;20034;-69
2021/12/06 00:26:14;;;;;;;5.72;1.23;;;;;;;7.87;84.27;101074.81;7393051;19;20018;-67
2021/12/06 00:28:44;;;;;;;9.15;2.30;;;;;;;7.86;84.22;101075.78;7386845;19;20010;-70
2021/12/06 00:31:13;;;;;;;7.40;1.85;;;;;;;7.85;84.04;101071.50;7386812;19;20020;-69
2021/12/06 00:33:42;;;;;;;8.82;2.20;;;;;;;7.83;84.30;101068.16;7386560;19;20577;-65
2021/12/06 00:36:16;;;;;;;13.15;2.05;;;;;;;7.80;84.34;101068.44;7389683;19;20018;-70
2021/12/06 00:38:45;;;;;;;8.48;2.20;;;;;;;7.80;84.74;101062.34;7391613;19;20109;-68
2021/12/06 00:41:12;;;;;;;9.20;1.67;;;;;;;7.80;84.57;101057.94;7390925;19;20014;-70
2021/12/06 00:43:39;;;;;;;7.90;2.33;;;;;;;7.78;84.43;101057.25;7386384;19;20042;-66
2021/12/06 00:46:06;;;;;;;7.93;2.45;;;;;;;7.76;84.41;101066.19;7389079;19;20544;-69
2021/12/06 00:48:33;;;;;;;9.70;3.10;;;;;;;7.75;84.59;101067.97;7389680;19;20011;-71
2021/12/06 00:51:01;;;;;;;7.07;2.25;;;;;;;7.72;84.74;101065.59;7382125;19;20014;-67
2021/12/06 00:53:28;;;;;;;5.57;1.30;;;;;;;7.72;84.76;101065.59;7386233;19;20029;-68
2021/12/06 00:55:56;;;;;;;13.68;2.42;;;;;;;7.71;84.93;101069.22;7386483;19;20011;-70
2021/12/06 00:58:24;;;;;;;7.35;2.83;;;;;;;7.71;84.65;101066.59;7387132;19;20011;-69
2021/12/06 01:00:54;;;;;;;7.68;2.10;;;;;;;7.69;84.74;101060.63;7384550;19;20014;-69
2021/12/06 01:03:25;;;;;;;6.35;1.80;;;;;;;7.69;84.19;101071.09;7385825;19;20007;-68
2021/12/06 01:05:53;;;;;;;6.82;2.58;;;;;;;7.67;84.21;101062.53;7386986;19;20479;-68
2021/12/06 01:08:21;;;;;;;8.90;2.22;;;;;;;7.63;84.38;101063.75;7389914;19;20081;-69
2021/12/06 01:10:49;;;;;;;11.85;1.95;;;;;;;7.61;84.55;101066.53;7390596;19;20793;-69
2021/12/06 01:13:17;;;;;;;7.03;3.28;;;;;;;7.59;85.23;101059.75;7388287;19;20366;-67
2021/12/06 01:15:44;;;;;;;8.95;2.33;;;;;;;7.57;85.17;101059.88;7389274;19;20029;-70
2021/12/06 01:18:14;;;;;;;8.15;2.75;;;;;;;7.56;85.29;101063.47;7389314;19;20345;-68
2021/12/06 01:21:00;;;;;;;11.25;2.97;;;;;;;7.54;85.58;101065.38;7384794;19;20022;-68
2021/12/06 01:23:40;;;;;;;9.77;2.47;;;;;;;7.52;85.40;101061.19;7385999;19;20066;-68
2021/12/06 01:31:13;;;;;;;17.25;7.38;;;;;;;7.45;85.75;101057.44;7385826;19;20014;-68
2021/12/06 01:41:26;;;;;;;11.25;4.50;;;;;;;7.41;85.87;101042.97;7388695;19;20184;-70
2021/12/06 01:44:06;;;;;;;15.93;6.70;;;;;;;7.42;87.01;101040.19;7385018;19;20022;-68
2021/12/06 01:46:48;;;;;;;12.52;4.63;;;;;;;7.40;86.99;101043.91;7388998;19;20018;-71
2021/12/06 01:49:16;;;;;;;11.30;4.70;;;;;;;7.40;86.47;101049.16;7386949;19;20027;-68
2021/12/06 01:51:46;;;;;;;14.07;5.15;;;;;;;7.37;86.50;101065.91;7387176;19;20021;-69
2021/12/06 01:54:15;;;;;;;13.15;4.97;;;;;;;7.39;86.19;101071.88;7387178;19;20094;-68
2021/12/06 01:56:44;;;;;;;14.57;4.57;;;;;;;7.36;86.14;101068.69;7386823;19;20014;-71
2021/12/06 01:59:12;;;;;;;17.33;5.57;;;;;;;7.33;86.07;101069.75;7385877;19;20021;-67
2021/12/06 02:01:39;;;;;;;15.90;6.07;;;;;;;7.34;87.08;101066.19;7387594;19;20007;-66
2021/12/06 02:04:07;;;;;;;11.40;3.95;;;;;;;7.32;86.45;101061.06;7390534;19;20068;-68
2021/12/06 02:06:36;;;;;;;13.45;5.43;;;;;;;7.31;86.33;101069.06;7394740;19;20011;-70
2021/12/06 02:09:05;;;;;;;14.02;5.55;;;;;;;7.31;86.57;101075.09;7392115;19;20045;-71
2021/12/06 02:11:35;;;;;;;16.30;5.35;;;;;;;7.35;87.71;101073.09;7397241;19;20010;-66
2021/12/06 02:14:17;;;;;;;17.00;5.50;;;;;;;7.34;87.31;101081.88;7397503;19;20018;-71
2021/12/06 02:17:01;;;;;;;11.50;5.28;;;;;;;7.26;86.23;101077.25;7394733;19;20015;-67
2021/12/06 02:19:41;;;;;;;11.43;4.63;;;;;;;7.26;86.33;101063.38;7393958;19;20202;-67
2021/12/06 02:22:13;;;;;;;15.05;6.10;;;;;;;7.26;86.50;101060.75;7393621;19;20021;-69
2021/12/06 02:24:41;;;;;;;17.05;5.97;;;;;;;7.29;86.23;101063.13;7394208;19;20150;-69
2021/12/06 02:27:11;;;;;;;18.08;6.40;;;;;;;7.28;86.19;101051.81;7396042;19;20006;-71
2021/12/06 02:29:39;;;;;;;16.70;6.55;;;;;;;7.27;86.16;101044.91;7393675;19;20021;-68
2021/12/06 02:32:10;;;;;;;19.17;6.15;;;;;;;7.28;86.80;101040.50;7390892;19;20003;-68
2021/12/06 02:34:39;;;;;;;14.70;6.00;;;;;;;7.22;86.16;101048.84;7391966;19;20047;-71
2021/12/06 02:37:09;;;;;;;20.52;7.30;;;;;;;7.15;86.16;101050.34;7390874;19;20007;-67
2021/12/06 02:39:37;;;;;;;14.45;5.47;;;;;;;7.15;86.64;101053.78;7396975;19;20014;-68
2021/12/06 02:42:07;;;;;;;13.65;5.82;;;;;;;7.13;86.30;101049.63;7394165;19;20015;-69
2021/12/06 02:44:35;;;;;;;18.40;6.40;;;;;;;7.14;86.39;101043.44;7393028;19;20010;-69
2021/12/06 02:47:02;;;;;;;14.98;4.97;;;;;;;7.15;86.58;101060.81;7396454;19;20074;-70
2021/12/06 02:49:30;;;;;;;15.07;5.25;;;;;;;7.16;86.69;101073.72;7393033;19;20030;-67
2021/12/06 02:51:57;;;;;;;14.40;5.30;;;;;;;7.18;86.27;101076.25;7390249;19;20003;-68
2021/12/06 02:54:25;;;;;;;18.85;7.43;;;;;;;7.18;86.58;101065.78;7393716;19;20316;-69
2021/12/06 02:56:56;;;;;;;17.58;6.20;;;;;;;7.21;86.79;101042.78;7391904;19;20011;-68
2021/12/06 02:59:26;;;;;;;16.23;6.22;;;;;;;7.20;86.42;101030.69;7392070;19;20489;-68
2021/12/06 03:01:57;;;;;;;16.42;5.88;;;;;;;7.14;86.10;101025.13;7392320;19;20014;-70
2021/12/06 03:04:24;;;;;;;16.38;6.65;;;;;;;7.14;85.90;101022.50;7392151;19;20483;-68
2021/12/06 03:06:55;;;;;;;19.42;6.15;;;;;;;7.10;85.72;101015.88;7395362;19;20035;-67
2021/12/06 03:09:25;;;;;;;19.50;6.63;;;;;;;7.12;86.91;101025.25;7396614;19;20042;-70
2021/12/06 03:12:00;;;;;;;17.83;6.30;;;;;;;7.16;86.67;101037.09;7394839;19;20405;-70
2021/12/06 03:14:31;;;;;;;55.17;9.48;;;;;;;7.15;87.29;101030.25;7389564;19;20014;-67
2021/12/06 03:17:00;;;;;;;21.23;8.05;;;;;;;7.17;87.04;101025.69;7390476;19;20038;-70
2021/12/06 03:19:27;;;;;;;20.45;7.50;;;;;;;7.14;86.90;101023.34;7390902;19;20489;-66
2021/12/06 03:21:55;;;;;;;16.77;6.30;;;;;;;7.09;86.12;101019.44;7393629;19;20018;-70
2021/12/06 03:24:22;;;;;;;18.10;6.50;;;;;;;7.06;86.43;101020.50;7391472;19;20019;-68
2021/12/06 03:26:51;;;;;;;14.23;6.03;;;;;;;7.08;86.97;101018.59;7394696;19;20440;-68
2021/12/06 03:29:18;;;;;;;20.83;6.65;;;;;;;7.08;86.97;101010.75;7392454;19;20066;-71
2021/12/06 03:31:47;;;;;;;19.73;6.95;;;;;;;7.04;86.49;101017.19;7391271;19;20015;-70
2021/12/06 03:34:15;;;;;;;17.23;6.18;;;;;;;7.06;86.55;101023.13;7391785;19;20846;-67
2021/12/06 03:36:46;;;;;;;17.90;7.30;;;;;;;7.08;86.83;101030.84;7389635;19;20528;-68
2021/12/06 03:39:23;;;;;;;18.85;7.40;;;;;;;7.09;86.72;101028.13;7390215;19;20118;-67
2021/12/06 03:41:53;;;;;;;28.75;7.97;;;;;;;7.12;86.47;101027.84;7389493;19;20011;-66
2021/12/06 03:44:21;;;;;;;22.98;7.32;;;;;;;7.13;86.77;101016.44;7390229;19;20050;-69
2021/12/06 03:46:53;;;;;;;25.63;10.18;;;;;;;7.13;86.65;101024.28;7393056;19;20034;-70
2021/12/06 03:49:20;;;;;;;19.83;7.28;;;;;;;7.15;87.68;101017.16;7391472;19;20014;-69
2021/12/06 03:51:48;;;;;;;21.83;6.75;;;;;;;7.14;86.80;101023.34;7387957;19;20049;-70
2021/12/06 03:54:19;;;;;;;24.35;7.68;;;;;;;7.13;86.51;101015.59;7390648;19;20039;-69
2021/12/06 03:56:47;;;;;;;19.25;6.93;;;;;;;7.14;86.36;101004.19;7390902;19;20035;-69
2021/12/06 03:59:14;;;;;;;20.70;6.57;;;;;;;7.14;86.36;101005.03;7389674;19;20014;-69
2021/12/06 04:01:41;;;;;;;22.08;7.38;;;;;;;7.15;86.00;101009.31;7388736;19;20024;-68
2021/12/06 04:04:09;;;;;;;23.17;7.28;;;;;;;7.14;85.79;101017.28;7387208;19;20623;-66
2021/12/06 04:06:38;;;;;;;18.30;6.72;;;;;;;7.14;85.80;101018.09;7390640;19;20048;-69
2021/12/06 04:09:06;;;;;;;39.35;9.85;;;;;;;7.16;86.53;101018.78;7389854;19;20504;-71
2021/12/06 04:11:34;;;;;;;19.77;7.05;;;;;;;7.16;86.37;101023.22;7389165;19;20797;-71
2021/12/06 04:14:02;;;;;;;17.38;7.57;;;;;;;7.15;86.56;101016.31;7386730;19;20019;-67
2021/12/06 04:16:29;;;;;;;20.88;6.93;;;;;;;7.13;86.39;101011.22;7391491;19;20099;-67
2021/12/06 04:19:02;;;;;;;23.52;7.03;;;;;;;7.14;86.17;101006.81;7385934;19;20471;-67
2021/12/06 04:21:29;;;;;;;22.88;7.57;;;;;;;7.13;85.94;101008.59;7391505;19;20428;-70
2021/12/06 04:23:56;;;;;;;22.00;7.13;;;;;;;7.12;86.06;101006.94;7389497;19;20154;-68
2021/12/06 04:26:24;;;;;;;26.63;8.15;;;;;;;7.12;86.90;101003.47;7392113;19;20014;-69
2021/12/06 04:28:59;;;;;;;41.70;11.98;;;;;;;7.16;88.40;100999.69;7388042;19;20022;-71
2021/12/06 04:31:30;;;;;;;38.80;10.10;;;;;;;7.15;88.28;100983.16;7388008;19;20014;-68
2021/12/06 04:33:57;;;;;;;24.55;7.38;;;;;;;7.13;86.91;100979.81;7388486;19;20022;-69
2021/12/06 04:36:36;;;;;;;31.10;8.02;;;;;;;7.12;86.15;100987.78;7387462;19;20014;-68
2021/12/06 04:39:06;;;;;;;28.67;9.10;;;;;;;7.08;86.71;100989.00;7387393;19;20033;-70
2021/12/06 04:41:33;;;;;;;21.83;7.45;;;;;;;7.03;86.48;100989.38;7386423;19;20002;-68
2021/12/06 04:44:00;;;;;;;21.67;8.10;;;;;;;7.03;87.54;100992.00;7388029;19;20090;-70
2021/12/06 04:46:26;;;;;;;25.10;7.55;;;;;;;7.04;87.64;100988.44;7387789;19;20010;-70
2021/12/06 04:48:53;;;;;;;22.30;8.52;;;;;;;7.07;87.26;100995.19;7386984;19;20708;-71
2021/12/06 04:51:20;;;;;;;32.40;10.90;;;;;;;7.06;86.92;100989.13;7385850;19;20018;-71
2021/12/06 04:53:48;;;;;;;23.63;8.85;;;;;;;7.05;86.99;100992.72;7387954;19;20019;-70
2021/12/06 04:56:30;;;;;;;22.02;7.85;;;;;;;7.02;86.46;100998.16;7384746;19;20010;-70
2021/12/06 04:59:17;;;;;;;21.95;7.85;;;;;;;6.98;86.65;100993.31;7387476;19;20776;-69
2021/12/06 05:01:46;;;;;;;25.38;8.07;;;;;;;6.99;86.70;100992.38;7390850;19;20022;-66
2021/12/06 05:04:21;;;;;;;19.67;7.13;;;;;;;6.98;86.66;101001.16;7386336;19;20616;-67
2021/12/06 05:06:52;;;;;;;18.30;6.80;;;;;;;6.99;86.30;100998.44;7389023;19;20035;-68
2021/12/06 05:09:25;;;;;;;26.17;7.85;;;;;;;7.00;86.60;101000.09;7389617;19;20022;-69
2021/12/06 05:11:52;;;;;;;22.05;7.50;;;;;;;7.03;87.15;100985.94;7387267;19;20591;-68
2021/12/06 05:14:20;;;;;;;17.80;7.63;;;;;;;7.04;87.46;100991.03;7386608;19;20046;-67
2021/12/06 05:16:47;;;;;;;21.73;6.75;;;;;;;7.03;87.85;100993.78;7390050;19;20038;-66
2021/12/06 05:19:14;;;;;;;21.88;8.68;;;;;;;7.01;87.15;101006.97;7386240;19;20018;-70
2021/12/06 05:21:41;;;;;;;24.05;8.02;;;;;;;6.97;87.11;101007.34;7388669;19;20015;-70
2021/12/06 05:24:08;;;;;;;22.50;7.00;;;;;;;6.96;86.66;101005.72;7385399;19;20472;-69
2021/12/06 05:26:36;;;;;;;20.77;7.40;;;;;;;6.93;86.32;100998.94;7390025;19;20019;-70
2021/12/06 05:29:06;;;;;;;21.60;8.68;;;;;;;6.94;86.39;101000.59;7387582;19;20327;-68
2021/12/06 05:31:38;;;;;;;20.58;7.30;;;;;;;6.90;86.10;101006.22;7387039;19;20051;-70
2021/12/06 05:34:13;;;;;;;21.35;6.90;;;;;;;6.90;86.40;100990.50;7386660;19;20376;-68
2021/12/06 05:36:41;;;;;;;21.52;8.38;;;;;;;6.91;86.59;100982.53;7387287;19;20018;-70
2021/12/06 05:39:09;;;;;;;22.17;7.35;;;;;;;6.91;86.50;100972.06;7393560;19;20010;-67
2021/12/06 05:41:37;;;;;;;18.92;7.10;;;;;;;6.95;87.59;100970.88;7394433;19;20353;-67
2021/12/06 05:44:08;;;;;;;18.35;6.63;;;;;;;6.95;86.90;100959.59;7393874;19;20014;-67
2021/12/06 05:46:39;;;;;;;24.42;7.07;;;;;;;6.96;86.69;100948.16;7391715;19;20499;-69
2021/12/06 05:49:09;;;;;;;25.95;8.98;;;;;;;6.96;87.22;100951.59;7392087;19;20018;-70
2021/12/06 05:51:36;;;;;;;18.00;7.55;;;;;;;6.95;87.12;100954.34;7390980;19;20319;-70
2021/12/06 05:54:03;;;;;;;22.50;8.05;;;;;;;6.94;86.81;100963.16;7393184;19;20495;-71
2021/12/06 05:56:30;;;;;;;20.73;8.27;;;;;;;6.94;87.48;100958.75;7392659;19;20024;-69
2021/12/06 05:58:57;;;;;;;21.80;7.53;;;;;;;6.95;87.06;100957.81;7392286;19;20031;-69
2021/12/06 06:01:29;;;;;;;16.75;5.90;;;;;;;6.86;86.26;100955.91;7392659;19;20011;-70
2021/12/06 06:04:01;;;;;;;116.80;11.52;;;;;;;6.87;86.92;100957.59;7393660;19;20014;-69
2021/12/06 06:06:30;;;;;;;19.90;7.22;;;;;;;6.90;87.56;100966.97;7395273;19;20020;-68
2021/12/06 06:08:58;;;;;;;48.25;9.82;;;;;;;6.94;88.12;100961.38;7394882;19;20031;-69
2021/12/06 06:11:26;;;;;;;20.80;6.90;;;;;;;6.96;88.30;100937.72;7392729;19;20039;-71
2021/12/06 06:13:53;;;;;;;20.10;7.07;;;;;;;6.94;87.62;100929.97;7397395;19;20014;-68
2021/12/06 06:16:22;;;;;;;19.73;7.15;;;;;;;6.91;87.27;100924.19;7396796;19;20003;-68
2021/12/06 06:18:51;;;;;;;59.95;10.43;;;;;;;6.93;87.19;100924.88;7392374;19;20038;-70
2021/12/06 06:21:20;;;;;;;15.73;6.38;;;;;;;6.88;86.88;100926.09;7393402;19;20063;-69
2021/12/06 06:23:47;;;;;;;31.10;8.65;;;;;;;6.87;87.17;100927.03;7392558;19;20014;-72
2021/12/06 06:26:14;;;;;;;25.40;8.68;;;;;;;6.89;88.40;100932.16;7392712;19;20043;-70
2021/12/06 06:28:40;;;;;;;17.40;7.03;;;;;;;6.91;87.95;100911.91;7392996;19;20019;-69
2021/12/06 06:31:07;;;;;;;16.92;6.68;;;;;;;6.80;87.18;100904.97;7392325;19;20018;-68
2021/12/06 06:33:34;;;;;;;30.08;9.77;;;;;;;6.80;86.89;100914.59;7392244;19;20014;-67
2021/12/06 06:36:02;;;;;;;22.83;7.65;;;;;;;6.83;87.51;100925.63;7392126;19;20006;-67
2021/12/06 06:38:29;;;;;;;80.72;10.30;;;;;;;6.85;87.78;100915.88;7392393;19;20355;-66
2021/12/06 06:40:56;;;;;;;15.57;6.65;;;;;;;6.86;88.49;100914.91;7394519;19;20011;-70
2021/12/06 06:43:22;;;;;;;18.40;6.50;;;;;;;6.84;87.58;100910.78;7395799;19;20262;-71
2021/12/06 06:45:49;;;;;;;33.45;10.32;;;;;;;6.87;88.10;100897.44;7388806;19;20023;-70
2021/12/06 06:48:16;;;;;;;19.13;6.05;;;;;;;6.87;87.39;100889.59;7389466;19;20011;-70
2021/12/06 06:50:43;;;;;;;18.17;6.50;;;;;;;6.85;86.52;100891.53;7393574;19;20527;-71
2021/12/06 06:53:10;;;;;;;27.33;6.93;;;;;;;6.85;86.72;100881.06;7390137;19;20134;-68
2021/12/06 06:55:37;;;;;;;15.60;6.55;;;;;;;6.79;86.64;100884.19;7390814;19;20011;-68
2021/12/06 06:58:04;;;;;;;14.65;5.90;;;;;;;6.76;86.90;100887.03;7391102;19;20034;-69
2021/12/06 07:00:35;;;;;;;16.73;6.57;;;;;;;6.75;86.40;100878.38;7394384;19;20014;-68
2021/12/06 07:03:04;;;;;;;16.80;6.40;;;;;;;6.80;87.52;100867.53;7392859;19;20018;-69
2021/12/06 07:05:31;;;;;;;40.35;12.18;;;;;;;6.84;87.94;100858.47;7388940;19;20021;-68
2021/12/06 07:07:58;;;;;;;21.15;6.45;;;;;;;6.88;88.13;100852.03;7392966;19;20019;-68
2021/12/06 07:10:25;;;;;;;17.70;6.00;;;;;;;6.91;86.66;100850.97;7393769;19;20042;-68
2021/12/06 07:12:54;;;;;;;16.60;5.35;;;;;;;6.89;86.16;100848.47;7393058;19;20433;-67
2021/12/06 07:15:25;;;;;;;15.75;5.80;;;;;;;6.91;86.40;100837.88;7391857;19;20026;-70
2021/12/06 07:17:53;;;;;;;14.23;5.15;;;;;;;6.88;86.00;100833.72;7387368;19;20018;-70
2021/12/06 07:20:20;;;;;;;15.98;5.97;;;;;;;6.88;85.94;100821.47;7389991;19;20479;-69
2021/12/06 07:22:51;;;;;;;18.70;5.53;;;;;;;6.88;85.76;100818.03;7390197;19;20584;-66
2021/12/06 07:25:25;;;;;;;15.60;4.78;;;;;;;6.88;85.53;100812.81;7391559;19;20042;-68
2021/12/06 07:27:53;;;;;;;13.20;6.07;;;;;;;6.86;85.46;100806.88;7390492;19;20031;-68
2021/12/06 07:30:20;;;;;;;18.77;7.15;;;;;;;6.86;86.46;100793.78;7390327;19;20014;-68
2021/12/06 07:32:48;;;;;;;17.40;6.13;;;;;;;6.86;86.39;100797.25;7388265;19;20036;-71
2021/12/06 07:35:15;;;;;;;16.85;6.15;;;;;;;6.84;86.31;100807.00;7389751;19;20323;-70
2021/12/06 07:37:43;;;;;;;26.15;10.20;;;;;;;6.89;87.20;100793.56;7387914;19;20066;-70
2021/12/06 07:40:13;;;;;;;14.85;5.90;;;;;;;6.92;86.37;100790.66;7389631;19;20046;-69
2021/12/06 07:42:40;;;;;;;15.65;5.65;;;;;;;6.95;86.70;100794.81;7390043;19;20467;-71
2021/12/06 07:45:10;;;;;;;17.25;5.30;;;;;;;6.88;86.39;100808.41;7386638;19;20483;-71
2021/12/06 07:47:38;;;;;;;36.25;9.13;;;;;;;6.92;86.06;100821.22;7388501;19;20122;-68
2021/12/06 07:50:08;;;;;;;12.50;5.25;;;;;;;6.95;86.22;100834.03;7388040;19;20037;-69
2021/12/06 07:52:35;;;;;;;19.65;6.63;;;;;;;6.96;86.29;100835.72;7387874;19;20034;-67
2021/12/06 07:55:08;;;;;;;22.63;8.30;;;;;;;6.99;86.28;100838.06;7389476;19;20732;-69
2021/12/06 07:57:35;;;;;;;20.58;5.82;;;;;;;7.00;86.64;100826.63;7391455;19;20111;-69
2021/12/06 08:00:07;;;;;;;18.75;6.07;;;;;;;7.05;86.35;100825.28;7387981;19;20110;-67
2021/12/06 08:02:38;;;;;;;230.65;18.42;;;;;;;7.11;87.43;100816.91;7393342;19;20010;-71
2021/12/06 08:07:47;;;;;;;15.48;4.95;;;;;;;7.12;86.99;100821.19;7391103;19;20007;-68
2021/12/06 08:10:14;;;;;;;25.80;9.38;;;;;;;7.13;86.55;100816.78;7388065;19;20014;-71
2021/12/06 08:12:41;;;;;;;39.83;6.53;;;;;;;7.14;86.73;100803.56;7391174;19;20019;-69
2021/12/06 08:15:09;;;;;;;13.88;4.40;;;;;;;7.15;85.69;100804.41;7388373;19;20010;-68
2021/12/06 08:17:36;;;;;;;29.20;6.38;;;;;;;7.13;85.20;100801.91;7386278;19;20039;-68
2021/12/06 08:20:06;;;;;;;20.95;4.60;;;;;;;7.11;84.89;100797.78;7387310;19;20018;-70
2021/12/06 08:22:33;;;;;;;10.30;3.80;;;;;;;7.09;85.08;100810.16;7388817;19;20034;-69
2021/12/06 08:25:01;;;;;;;15.82;6.97;;;;;;;7.10;85.99;100806.59;7388526;19;20349;-67
2021/12/06 08:27:28;;;;;;;15.95;6.38;;;;;;;7.11;86.48;100806.44;7388111;19;20007;-68
2021/12/06 08:29:54;;;;;;;11.40;4.20;;;;;;;7.12;86.41;100805.47;7387913;19;20479;-72
2021/12/06 08:32:21;;;;;;;12.10;4.30;;;;;;;7.10;85.34;100791.72;7390030;19;20026;-68
2021/12/06 08:34:49;;;;;;;21.83;5.60;;;;;;;7.13;85.28;100794.06;7385123;19;20018;-70
2021/12/06 08:37:17;;;;;;;13.88;3.78;;;;;;;7.13;84.60;100795.84;7387075;19;20059;-70
2021/12/06 08:39:46;;;;;;;25.30;7.18;;;;;;;7.12;84.31;100792.41;7385378;19;20644;-68
2021/12/06 08:42:13;;;;;;;16.17;5.32;;;;;;;7.16;85.29;100769.44;7392442;19;20011;-67
2021/12/06 08:44:41;;;;;;;14.82;4.85;;;;;;;7.16;84.33;100759.78;7388299;19;20069;-70
2021/12/06 08:47:07;;;;;;;18.60;6.85;;;;;;;7.15;84.22;100757.31;7385639;19;20022;-67
2021/12/06 08:49:34;;;;;;;18.23;5.25;;;;;;;7.18;85.16;100762.28;7390248;19;20046;-70
2021/12/06 08:52:03;;;;;;;12.95;5.10;;;;;;;7.21;85.37;100754.19;7387258;19;20026;-69
2021/12/06 08:54:30;;;;;;;20.85;5.75;;;;;;;7.26;87.82;100742.31;7384769;19;20010;-69
2021/12/06 08:57:00;;;;;;;18.98;5.95;;;;;;;7.36;89.48;100734.53;7385049;19;20010;-69
2021/12/06 08:59:27;;;;;;;17.85;6.45;;;;;;;7.44;88.82;100739.06;7385299;19;20019;-70
2021/12/06 09:01:57;;;;;;;18.35;5.13;;;;;;;7.45;86.35;100730.25;7362870;19;20039;-69
2021/12/06 09:04:44;;;;;;;16.17;5.82;;;;;;;7.46;85.75;100724.06;7388525;19;20022;-69
2021/12/06 09:07:14;;;;;;;16.25;6.03;;;;;;;7.47;85.08;100718.69;7391876;19;20010;-69
2021/12/06 09:09:46;;;;;;;24.27;7.50;;;;;;;7.50;86.03;100704.50;7389875;19;20372;-69
2021/12/06 09:12:17;;;;;;;18.23;6.25;;;;;;;7.50;85.45;100705.34;7386741;19;20038;-69
2021/12/06 09:14:44;;;;;;;15.45;7.20;;;;;;;7.50;85.54;100699.28;7387618;19;20018;-69
2021/12/06 09:17:13;;;;;;;17.80;5.82;;;;;;;7.49;85.57;100687.97;7387485;19;20345;-67
2021/12/06 09:19:41;;;;;;;17.13;7.78;;;;;;;7.51;85.46;100693.91;7387050;19;20017;-70
2021/12/06 09:22:09;;;;;;;25.50;8.93;;;;;;;7.54;86.03;100690.19;7389353;19;20030;-69
2021/12/06 09:24:35;;;;;;;39.17;10.95;;;;;;;7.58;85.87;100678.47;7387751;19;20473;-68
2021/12/06 09:27:03;;;;;;;13.68;5.28;;;;;;;7.53;85.61;100681.50;7387413;19;20014;-69
2021/12/06 09:29:33;;;;;;;12.85;5.15;;;;;;;7.58;85.88;100684.53;7390583;19;20030;-69
2021/12/06 09:32:00;;;;;;;32.60;11.60;;;;;;;7.64;86.35;100673.50;7390461;19;20014;-69
2021/12/06 09:34:31;;;;;;;14.07;4.53;;;;;;;7.68;86.52;100671.44;7388185;19;20030;-66
2021/12/06 09:39:35;;;;;;;15.00;5.28;;;;;;;7.67;85.07;100672.41;7390784;19;20010;-69
2021/12/06 09:42:03;;;;;;;18.65;5.57;;;;;;;7.70;84.83;100665.13;7389237;19;20033;-68
2021/12/06 09:44:31;;;;;;;17.73;4.80;;;;;;;7.72;84.95;100657.09;7387239;19;20516;-66
2021/12/06 09:46:58;;;;;;;13.32;5.25;;;;;;;7.74;85.05;100653.38;7388663;19;20034;-69
2021/12/06 09:49:25;;;;;;;16.88;4.40;;;;;;;7.76;85.20;100660.28;7386197;19;20017;-69
2021/12/06 09:51:57;;;;;;;16.33;4.30;;;;;;;7.80;84.71;100653.78;7384868;19;20018;-69
2021/12/06 09:54:29;;;;;;;11.90;5.28;;;;;;;7.86;84.84;100646.22;7387968;19;20018;-67
2021/12/06 09:56:58;;;;;;;12.93;3.88;;;;;;;7.91;84.43;100643.19;7386630;19;20031;-69
2021/12/06 09:59:31;;;;;;;15.73;3.20;;;;;;;7.94;84.11;100635.03;7387066;19;20009;-72
2021/12/06 10:02:03;;;;;;;22.50;6.95;;;;;;;7.99;84.38;100630.19;7388734;19;20014;-68
2021/12/06 10:04:34;;;;;;;9.45;4.03;;;;;;;7.98;84.29;100624.13;7389234;19;20317;-67
2021/12/06 10:07:01;;;;;;;21.42;9.40;;;;;;;7.99;83.64;100627.56;7388205;19;20400;-68
2021/12/06 10:09:29;;;;;;;11.43;4.90;;;;;;;8.04;83.94;100620.94;7388042;19;20019;-69
2021/12/06 10:11:58;;;;;;;12.25;4.32;;;;;;;8.05;83.26;100619.16;7385756;19;20352;-67
2021/12/06 10:14:25;;;;;;;12.65;3.72;;;;;;;8.09;82.61;100618.72;7389315;19;20014;-69
2021/12/06 10:16:52;;;;;;;11.80;3.53;;;;;;;8.13;82.28;100609.59;7386346;19;20007;-72
2021/12/06 10:19:21;;;;;;;13.00;2.80;;;;;;;8.17;82.97;100610.16;7383183;19;20015;-70
2021/12/06 10:21:48;;;;;;;10.30;3.25;;;;;;;8.21;82.96;100608.91;7387774;19;20011;-72
2021/12/06 10:24:18;;;;;;;10.32;2.40;;;;;;;8.26;83.05;100598.00;7390081;19;20003;-67
2021/12/06 10:26:46;;;;;;;7.25;2.38;;;;;;;8.25;81.80;100589.31;7394906;19;20018;-68
2021/12/06 10:29:20;;;;;;;5.60;1.70;;;;;;;8.28;80.77;100575.09;7393020;19;20030;-69
2021/12/06 10:31:51;;;;;;;7.50;1.73;;;;;;;8.29;81.18;100561.81;7393128;19;20037;-70
2021/12/06 10:34:25;;;;;;;6.00;3.03;;;;;;;8.37;81.93;100550.66;7392220;19;20522;-67
2021/12/06 10:36:54;;;;;;;6.72;1.48;;;;;;;8.40;81.32;100552.97;7391002;19;20067;-68
2021/12/06 10:39:22;;;;;;;8.02;1.92;;;;;;;8.45;82.05;100542.88;7393050;19;20011;-71
2021/12/06 10:41:51;;;;;;;6.35;1.67;;;;;;;8.48;81.58;100529.50;7395005;19;20015;-68
2021/12/06 10:44:22;;;;;;;5.75;1.80;;;;;;;8.53;82.67;100533.31;7388848;19;20059;-68
2021/12/06 10:46:53;;;;;;;5.22;1.67;;;;;;;8.53;82.20;100529.88;7390876;19;20010;-69
2021/12/06 10:49:24;;;;;;;10.20;1.75;;;;;;;8.57;82.08;100526.00;7394759;19;20469;-67
2021/12/06 10:51:51;;;;;;;5.53;1.33;;;;;;;8.53;81.49;100520.19;7391429;19;20018;-68
2021/12/06 10:54:33;;;;;;;3.83;1.63;;;;;;;8.50;82.38;100515.25;7392911;19;20011;-69
2021/12/06 10:57:03;;;;;;;8.32;2.85;;;;;;;8.47;82.74;100505.06;7393956;19;20011;-67
2021/12/06 10:59:37;;;;;;;5.00;1.38;;;;;;;8.54;83.81;100511.38;7390373;19;20483;-70
2021/12/06 11:02:09;;;;;;;7.22;2.78;;;;;;;8.57;84.80;100518.13;7393699;19;20029;-69
2021/12/06 11:04:37;;;;;;;20.13;4.70;;;;;;;8.61;85.59;100513.41;7395851;19;20019;-68
2021/12/06 11:07:05;;;;;;;11.57;1.55;;;;;;;8.59;85.83;100524.03;7391616;19;20302;-70
2021/12/06 11:09:37;;;;;;;11.60;1.98;;;;;;;8.51;85.26;100501.19;7393391;19;20079;-70
2021/12/06 11:12:06;;;;;;;12.27;4.10;;;;;;;8.45;85.55;100493.91;7392533;19;20010;-68
2021/12/06 11:14:36;;;;;;;7.50;1.63;;;;;;;8.45;85.72;100482.59;7392776;19;20013;-67
2021/12/06 11:17:08;;;;;;;7.68;2.25;;;;;;;8.43;85.92;100460.97;7393074;19;20010;-69
2021/12/06 11:19:37;;;;;;;13.27;2.60;;;;;;;8.39;86.59;100431.56;7390119;19;20042;-69
2021/12/06 11:22:10;;;;;;;6.00;1.30;;;;;;;8.37;86.89;100406.50;7393665;19;20092;-71
2021/12/06 11:24:40;;;;;;;5.70;1.13;;;;;;;8.36;86.63;100395.19;7390652;19;20597;-67
2021/12/06 11:27:20;;;;;;;7.22;2.13;;;;;;;8.36;86.81;100381.25;7394060;19;20006;-70
2021/12/06 11:29:52;;;;;;;7.78;1.02;;;;;;;8.40;86.94;100364.25;7393143;19;20090;-67
2021/12/06 11:32:22;;;;;;;6.32;1.23;;;;;;;8.41;86.47;100355.41;7394332;19;20006;-69
2021/12/06 11:34:56;;;;;;;4.60;0.93;;;;;;;8.41;86.44;100343.13;7388606;19;19998;-70
2021/12/06 11:37:32;;;;;;;4.22;0.65;;;;;;;8.39;85.27;100344.25;7392492;19;20426;-66
2021/12/06 11:40:03;;;;;;;4.50;1.20;;;;;;;8.38;85.62;100335.56;7390234;19;20013;-69
2021/12/06 11:42:32;;;;;;;5.20;0.75;;;;;;;8.41;85.90;100331.81;7394243;19;20014;-69
2021/12/06 11:45:16;;;;;;;5.60;1.08;;;;;;;8.41;85.54;100324.78;7393541;19;20014;-69
2021/12/06 11:47:42;;;;;;;8.10;1.45;;;;;;;8.41;85.61;100318.72;7391842;19;20032;-69
2021/12/06 11:50:09;;;;;;;5.28;1.83;;;;;;;8.40;85.56;100319.69;7393554;19;20024;-70
2021/12/06 11:52:36;;;;;;;7.07;1.00;;;;;;;8.40;85.51;100314.44;7391953;19;20078;-71
2021/12/06 11:55:10;;;;;;;8.85;4.28;;;;;;;8.39;86.05;100313.63;7392726;19;20014;-71